Time;durP1;ratioP1;P1;durP2;ratioP2;P2;SDS_P1;SDS_P2;PMS_P1;PMS_P2;Temp;Humidity;BMP_temperature;BMP_pressure;BME280_temperature;BME280_humidity;BME280_pressure;Samples;Min_cycle;Max_cycle;Signal;HPM_P1;HPM_P2
2023/06/22 00:00:50;;;;;;;20.08;18.08;;;;;;;;;;5033769;28;20033;-77
2023/06/22 00:03:18;;;;;;;20.52;17.75;;;;;;;;;;5034082;28;20048;-76
2023/06/22 00:05:44;;;;;;;22.92;20.50;;;;;;;;;;5032327;28;20597;-76
2023/06/22 00:08:10;;;;;;;22.80;19.38;;;;;;;;;;5031630;28;20041;-76
2023/06/22 00:10:36;;;;;;;21.95;19.50;;;;;;;;;;5032807;28;20076;-76
2023/06/22 00:13:02;;;;;;;22.98;20.17;;;;;;;;;;5034026;28;20037;-77
2023/06/22 00:15:28;;;;;;;23.77;21.10;;;;;;;;;;5033968;28;20073;-76
2023/06/22 00:17:54;;;;;;;24.42;21.50;;;;;;;;;;5017171;28;20049;-76
2023/06/22 00:20:20;;;;;;;21.67;19.33;;;;;;;;;;5031905;28;20120;-76
2023/06/22 00:22:47;;;;;;;24.42;20.35;;;;;;;;;;5016752;28;20093;-76
2023/06/22 00:25:14;;;;;;;22.67;20.35;;;;;;;;;;5032959;28;20048;-76
2023/06/22 00:27:40;;;;;;;31.65;16.30;;;;;;;;;;5033803;28;20084;-76
2023/06/22 00:30:06;;;;;;;17.80;11.80;;;;;;;;;;5032820;28;20054;-76
2023/06/22 00:32:32;;;;;;;13.60;12.40;;;;;;;;;;5028817;28;20049;-76
2023/06/22 00:35:00;;;;;;;12.60;11.40;;;;;;;;;;5022579;28;20091;-76
2023/06/22 00:37:29;;;;;;;13.77;12.38;;;;;;;;;;5038959;28;20046;-76
2023/06/22 00:39:55;;;;;;;13.80;12.50;;;;;;;;;;5019751;28;20049;-76
2023/06/22 00:42:21;;;;;;;13.23;12.00;;;;;;;;;;5014078;28;20487;-76
2023/06/22 00:44:47;;;;;;;16.58;13.70;;;;;;;;;;5014274;28;20468;-76
2023/06/22 00:47:15;;;;;;;12.60;11.30;;;;;;;;;;5020170;28;20069;-76
2023/06/22 00:49:41;;;;;;;8.80;8.00;;;;;;;;;;5032327;28;20121;-76
2023/06/22 00:52:09;;;;;;;10.82;9.82;;;;;;;;;;5024139;28;20041;-76
2023/06/22 00:54:38;;;;;;;12.07;10.98;;;;;;;;;;5025671;28;20041;-76
2023/06/22 00:57:04;;;;;;;13.15;11.90;;;;;;;;;;5026476;28;20037;-76
2023/06/22 00:59:32;;;;;;;14.25;12.95;;;;;;;;;;5026871;28;20041;-76
2023/06/22 01:01:59;;;;;;;13.40;12.00;;;;;;;;;;5024314;28;20071;-76
2023/06/22 01:04:34;;;;;;;16.92;14.63;;;;;;;;;;5025034;28;20046;-76
2023/06/22 01:07:07;;;;;;;24.02;21.33;;;;;;;;;;5027753;28;20376;-77
2023/06/22 01:09:36;;;;;;;21.25;13.20;;;;;;;;;;5013765;28;20045;-77
2023/06/22 01:12:04;;;;;;;41.72;13.57;;;;;;;;;;5020450;28;20088;-76
2023/06/22 01:14:30;;;;;;;18.10;13.20;;;;;;;;;;5027943;28;20049;-76
2023/06/22 01:16:57;;;;;;;13.35;12.18;;;;;;;;;;5019542;28;20038;-76
2023/06/22 01:19:42;;;;;;;15.10;13.50;;;;;;;;;;5013976;28;20045;-76
2023/06/22 01:22:12;;;;;;;15.23;13.63;;;;;;;;;;5031498;28;20051;-76
2023/06/22 01:24:57;;;;;;;14.85;13.32;;;;;;;;;;5032132;28;20069;-76
2023/06/22 01:27:26;;;;;;;16.05;14.35;;;;;;;;;;5032733;28;20107;-76
2023/06/22 01:30:00;;;;;;;15.95;14.35;;;;;;;;;;5030084;28;20511;-76
2023/06/22 01:32:27;;;;;;;14.57;13.07;;;;;;;;;;5032799;28;20124;-76
2023/06/22 01:34:53;;;;;;;13.32;11.77;;;;;;;;;;5033075;28;20176;-76
2023/06/22 01:37:20;;;;;;;12.27;11.13;;;;;;;;;;5030728;28;20041;-76
2023/06/22 01:39:46;;;;;;;11.50;10.50;;;;;;;;;;5029641;28;20046;-76
2023/06/22 01:42:12;;;;;;;11.75;10.85;;;;;;;;;;5032511;28;20045;-76
2023/06/22 01:44:38;;;;;;;12.52;11.32;;;;;;;;;;5014259;28;20038;-76
2023/06/22 01:47:05;;;;;;;12.60;11.43;;;;;;;;;;5021511;28;20380;-76
2023/06/22 01:49:31;;;;;;;15.38;13.10;;;;;;;;;;5020399;28;20511;-76
2023/06/22 01:51:57;;;;;;;18.13;15.65;;;;;;;;;;5028173;28;20542;-76
2023/06/22 01:54:23;;;;;;;36.92;18.40;;;;;;;;;;5029134;28;20504;-76
2023/06/22 01:56:50;;;;;;;76.00;20.05;;;;;;;;;;5026337;28;20038;-76
2023/06/22 01:59:21;;;;;;;30.92;18.67;;;;;;;;;;5023312;28;20053;-76
2023/06/22 02:02:00;;;;;;;29.52;20.20;;;;;;;;;;5027514;28;20045;-76
2023/06/22 02:04:28;;;;;;;19.75;17.65;;;;;;;;;;5025446;28;20057;-76
2023/06/22 02:06:59;;;;;;;19.05;17.08;;;;;;;;;;5026574;28;20167;-76
2023/06/22 02:09:27;;;;;;;18.40;16.60;;;;;;;;;;5028654;28;20525;-76
2023/06/22 02:11:55;;;;;;;38.35;18.60;;;;;;;;;;5015097;28;20091;-77
2023/06/22 02:14:22;;;;;;;24.80;19.10;;;;;;;;;;5028161;28;20046;-76
2023/06/22 02:16:48;;;;;;;109.18;23.33;;;;;;;;;;5019126;28;20061;-76
2023/06/22 02:19:15;;;;;;;33.90;18.75;;;;;;;;;;5013342;28;20037;-76
2023/06/22 02:21:42;;;;;;;19.05;16.10;;;;;;;;;;5013980;28;20053;-76
2023/06/22 02:24:09;;;;;;;131.45;20.48;;;;;;;;;;5015515;28;20053;-76
2023/06/22 02:26:36;;;;;;;131.13;22.05;;;;;;;;;;5024863;28;20498;-77
2023/06/22 02:29:02;;;;;;;35.00;16.30;;;;;;;;;;5031864;28;20422;-77
2023/06/22 02:31:30;;;;;;;21.02;15.52;;;;;;;;;;5031237;28;20041;-76
2023/06/22 02:33:59;;;;;;;17.10;15.52;;;;;;;;;;5025352;28;20050;-76
2023/06/22 02:36:26;;;;;;;15.90;14.60;;;;;;;;;;5027904;28;20452;-76
2023/06/22 02:38:52;;;;;;;16.48;15.05;;;;;;;;;;5027177;28;20041;-76
2023/06/22 02:41:18;;;;;;;23.50;16.63;;;;;;;;;;5026813;28;20041;-76
2023/06/22 02:43:45;;;;;;;32.67;18.05;;;;;;;;;;5025110;28;20509;-76
2023/06/22 02:46:12;;;;;;;26.25;19.20;;;;;;;;;;5013241;28;20050;-76
2023/06/22 02:48:39;;;;;;;19.83;17.83;;;;;;;;;;5032761;28;20042;-76
2023/06/22 02:51:05;;;;;;;18.13;16.40;;;;;;;;;;5027766;28;20045;-76
2023/06/22 02:53:31;;;;;;;18.08;16.38;;;;;;;;;;5030177;28;20053;-76
2023/06/22 02:55:57;;;;;;;18.45;16.60;;;;;;;;;;5034541;28;20054;-76
2023/06/22 02:58:24;;;;;;;17.73;16.00;;;;;;;;;;5029385;28;20113;-76
2023/06/22 03:00:52;;;;;;;88.90;25.13;;;;;;;;;;5017366;28;20045;-76
2023/06/22 03:03:19;;;;;;;23.85;21.35;;;;;;;;;;5033788;28;20113;-76
2023/06/22 03:05:45;;;;;;;32.83;19.75;;;;;;;;;;5031205;28;20041;-76
2023/06/22 03:08:11;;;;;;;20.73;18.38;;;;;;;;;;5021917;28;20385;-76
2023/06/22 03:10:38;;;;;;;25.17;19.25;;;;;;;;;;5021123;28;20046;-76
2023/06/22 03:13:04;;;;;;;70.70;22.88;;;;;;;;;;5022403;28;20452;-76
2023/06/22 03:15:31;;;;;;;120.07;24.83;;;;;;;;;;5035263;28;20046;-76
2023/06/22 03:17:57;;;;;;;120.53;25.33;;;;;;;;;;5034437;28;20423;-76
2023/06/22 03:20:23;;;;;;;170.00;25.50;;;;;;;;;;5023820;28;20103;-76
2023/06/22 03:22:49;;;;;;;62.83;22.23;;;;;;;;;;5022558;28;20065;-76
2023/06/22 03:25:15;;;;;;;21.92;17.92;;;;;;;;;;5033361;28;20077;-76
2023/06/22 03:27:42;;;;;;;23.27;19.70;;;;;;;;;;5050217;28;20088;-76
2023/06/22 03:30:09;;;;;;;21.40;19.13;;;;;;;;;;5035200;28;20049;-76
2023/06/22 03:32:35;;;;;;;21.08;17.85;;;;;;;;;;5031461;28;20144;-76
2023/06/22 03:35:02;;;;;;;36.47;20.83;;;;;;;;;;5028299;28;20042;-76
2023/06/22 03:37:29;;;;;;;268.25;31.48;;;;;;;;;;5034651;28;20045;-76
2023/06/22 03:39:55;;;;;;;137.27;24.92;;;;;;;;;;5035121;28;20060;-76
2023/06/22 03:42:21;;;;;;;83.10;21.55;;;;;;;;;;5026348;28;20486;-76
2023/06/22 03:44:47;;;;;;;46.03;19.35;;;;;;;;;;5016826;28;20038;-76
2023/06/22 03:47:14;;;;;;;26.50;17.58;;;;;;;;;;5026100;28;20080;-76
2023/06/22 03:49:40;;;;;;;20.85;17.73;;;;;;;;;;5034016;28;20045;-76
2023/06/22 03:52:06;;;;;;;18.85;16.48;;;;;;;;;;5031115;28;20395;-76
2023/06/22 03:54:32;;;;;;;32.75;18.67;;;;;;;;;;5032911;28;20053;-76
2023/06/22 03:56:58;;;;;;;28.60;20.45;;;;;;;;;;5032033;28;20552;-76
2023/06/22 03:59:25;;;;;;;23.75;18.85;;;;;;;;;;5027420;28;20111;-76
2023/06/22 04:01:51;;;;;;;56.88;21.73;;;;;;;;;;5027359;28;20496;-76
2023/06/22 04:04:20;;;;;;;23.95;18.25;;;;;;;;;;5025346;28;20038;-76
2023/06/22 04:06:47;;;;;;;38.33;19.02;;;;;;;;;;5032244;28;20049;-76
2023/06/22 04:09:13;;;;;;;60.88;19.90;;;;;;;;;;5032433;28;20123;-76
2023/06/22 04:11:39;;;;;;;48.70;18.27;;;;;;;;;;5034427;28;20049;-76
2023/06/22 04:14:05;;;;;;;52.25;20.48;;;;;;;;;;5030122;28;20038;-76
2023/06/22 04:16:31;;;;;;;68.22;19.05;;;;;;;;;;5031367;28;20046;-77
2023/06/22 04:18:57;;;;;;;37.72;17.95;;;;;;;;;;5024462;28;20068;-76
2023/06/22 04:21:23;;;;;;;65.80;18.13;;;;;;;;;;5027227;28;20430;-77
2023/06/22 04:23:49;;;;;;;30.73;16.90;;;;;;;;;;5031239;28;20103;-76
2023/06/22 04:26:15;;;;;;;46.10;17.38;;;;;;;;;;5020360;28;20050;-76
2023/06/22 04:28:42;;;;;;;31.92;17.00;;;;;;;;;;5033572;28;20508;-76
2023/06/22 04:31:08;;;;;;;24.08;16.17;;;;;;;;;;5033314;28;20053;-76
2023/06/22 04:33:34;;;;;;;24.55;15.85;;;;;;;;;;5019760;28;20379;-76
2023/06/22 04:36:03;;;;;;;17.02;15.27;;;;;;;;;;5033671;28;20518;-76
2023/06/22 04:38:33;;;;;;;18.95;16.58;;;;;;;;;;5029283;28;20053;-76
2023/06/22 04:41:01;;;;;;;22.75;17.13;;;;;;;;;;5032539;28;20056;-76
2023/06/22 04:43:30;;;;;;;18.38;16.52;;;;;;;;;;5033270;28;20049;-76
2023/06/22 04:46:03;;;;;;;16.35;13.90;;;;;;;;;;5020614;28;20037;-76
2023/06/22 04:48:32;;;;;;;15.73;14.07;;;;;;;;;;5025284;28;20052;-76
2023/06/22 04:51:02;;;;;;;15.55;13.95;;;;;;;;;;5021901;28;20069;-76
2023/06/22 04:53:29;;;;;;;21.23;15.68;;;;;;;;;;5022206;28;20042;-76
2023/06/22 04:55:55;;;;;;;20.42;18.23;;;;;;;;;;5019276;28;20059;-76
2023/06/22 04:58:21;;;;;;;21.67;18.38;;;;;;;;;;5032899;28;20037;-76
2023/06/22 05:00:51;;;;;;;24.95;20.48;;;;;;;;;;5031750;28;20123;-76
2023/06/22 05:03:18;;;;;;;25.67;19.42;;;;;;;;;;5032883;28;20045;-76
2023/06/22 05:05:44;;;;;;;26.25;21.90;;;;;;;;;;5032213;28;20124;-76
2023/06/22 05:08:10;;;;;;;27.27;22.23;;;;;;;;;;5030104;28;20137;-77
2023/06/22 05:10:36;;;;;;;28.83;22.30;;;;;;;;;;5032052;28;20049;-76
2023/06/22 05:13:03;;;;;;;27.13;21.30;;;;;;;;;;5033225;28;20052;-76
2023/06/22 05:15:33;;;;;;;29.77;22.30;;;;;;;;;;5028217;28;20046;-76
2023/06/22 05:17:59;;;;;;;33.20;22.73;;;;;;;;;;5017146;28;20088;-76
2023/06/22 05:20:25;;;;;;;29.15;22.50;;;;;;;;;;5028313;28;20077;-76
2023/06/22 05:22:51;;;;;;;29.88;22.58;;;;;;;;;;5015458;28;20519;-76
2023/06/22 05:25:17;;;;;;;38.40;27.33;;;;;;;;;;5031660;28;20052;-76
2023/06/22 05:27:44;;;;;;;42.08;29.60;;;;;;;;;;5026508;28;20041;-76
2023/06/22 05:30:11;;;;;;;44.35;30.92;;;;;;;;;;5020134;28;20109;-78
2023/06/22 05:32:37;;;;;;;42.13;29.05;;;;;;;;;;5030536;28;20054;-77
2023/06/22 05:35:04;;;;;;;45.45;31.88;;;;;;;;;;5021702;28;20045;-78
2023/06/22 05:37:30;;;;;;;41.28;28.92;;;;;;;;;;5030383;28;20464;-76
2023/06/22 05:39:57;;;;;;;45.35;30.90;;;;;;;;;;5013961;28;20080;-77
2023/06/22 05:42:25;;;;;;;40.50;28.80;;;;;;;;;;5032369;28;20128;-78
2023/06/22 05:44:51;;;;;;;41.78;30.77;;;;;;;;;;5031107;28;20130;-77
2023/06/22 05:47:17;;;;;;;45.75;31.15;;;;;;;;;;5029306;28;20479;-77
2023/06/22 05:49:43;;;;;;;43.08;30.40;;;;;;;;;;5027030;28;20144;-78
2023/06/22 05:52:09;;;;;;;40.40;29.13;;;;;;;;;;5014492;28;20508;-78
2023/06/22 05:54:36;;;;;;;45.25;30.65;;;;;;;;;;5025185;28;20124;-78
2023/06/22 05:57:02;;;;;;;41.92;31.23;;;;;;;;;;5023476;28;20480;-78
2023/06/22 05:59:28;;;;;;;40.85;30.23;;;;;;;;;;5030337;28;20102;-78
2023/06/22 06:01:54;;;;;;;39.80;30.73;;;;;;;;;;5029382;28;20176;-78
2023/06/22 06:04:20;;;;;;;41.72;30.45;;;;;;;;;;5025227;28;20053;-79
2023/06/22 06:06:49;;;;;;;41.50;31.85;;;;;;;;;;5029649;28;20038;-78
2023/06/22 06:09:15;;;;;;;38.92;30.70;;;;;;;;;;5026556;28;20133;-78
2023/06/22 06:11:42;;;;;;;39.63;30.75;;;;;;;;;;5031185;28;20052;-77
2023/06/22 06:14:08;;;;;;;39.90;30.90;;;;;;;;;;5030925;28;20053;-77
2023/06/22 06:16:34;;;;;;;39.30;29.25;;;;;;;;;;5027804;28;21677;-78
2023/06/22 06:19:00;;;;;;;37.63;29.48;;;;;;;;;;5023180;28;20061;-77
2023/06/22 06:21:26;;;;;;;38.13;28.88;;;;;;;;;;5000528;28;20049;-77
2023/06/22 06:23:53;;;;;;;38.40;28.48;;;;;;;;;;5031726;28;20061;-79
2023/06/22 06:26:29;;;;;;;36.10;29.85;;;;;;;;;;5034937;28;20041;-78
2023/06/22 06:28:56;;;;;;;36.80;28.33;;;;;;;;;;5018880;28;20500;-78
2023/06/22 06:31:23;;;;;;;38.53;29.77;;;;;;;;;;5029018;28;20045;-78
2023/06/22 06:33:49;;;;;;;36.60;28.83;;;;;;;;;;5032228;28;20037;-78
2023/06/22 06:36:16;;;;;;;33.35;27.33;;;;;;;;;;5030235;28;20052;-78
2023/06/22 06:38:42;;;;;;;33.50;25.67;;;;;;;;;;5034732;28;20053;-81
2023/06/22 06:41:08;;;;;;;29.70;23.67;;;;;;;;;;5025814;28;20042;-80
2023/06/22 06:43:34;;;;;;;31.40;23.75;;;;;;;;;;5031282;28;20056;-81
2023/06/22 06:46:00;;;;;;;31.23;24.85;;;;;;;;;;5033845;28;20045;-81
2023/06/22 06:48:26;;;;;;;30.50;25.30;;;;;;;;;;5033086;28;20148;-81
2023/06/22 06:50:52;;;;;;;33.65;25.77;;;;;;;;;;5033993;28;20034;-81
2023/06/22 06:53:18;;;;;;;33.88;27.15;;;;;;;;;;5019693;28;20048;-82
2023/06/22 06:55:45;;;;;;;32.60;25.75;;;;;;;;;;5017258;28;20049;-82
2023/06/22 06:58:14;;;;;;;31.00;24.48;;;;;;;;;;5031198;28;20124;-82
2023/06/22 07:00:40;;;;;;;32.38;26.50;;;;;;;;;;5036740;28;20153;-78
2023/06/22 07:03:07;;;;;;;28.17;22.42;;;;;;;;;;5036910;28;20041;-81
2023/06/22 07:05:33;;;;;;;25.05;17.50;;;;;;;;;;5038270;28;20056;-78
2023/06/22 07:07:59;;;;;;;20.45;15.82;;;;;;;;;;5033029;28;20045;-79
2023/06/22 07:10:25;;;;;;;22.65;16.45;;;;;;;;;;5036454;28;20116;-79
2023/06/22 07:12:51;;;;;;;26.50;19.35;;;;;;;;;;5037723;28;20102;-79
2023/06/22 07:15:17;;;;;;;21.58;17.65;;;;;;;;;;5036757;28;20038;-79
2023/06/22 07:17:43;;;;;;;19.73;16.23;;;;;;;;;;5035546;28;20057;-79
2023/06/22 07:20:11;;;;;;;14.90;12.68;;;;;;;;;;5035474;28;20037;-78
2023/06/22 07:22:38;;;;;;;15.40;13.32;;;;;;;;;;5035532;28;20488;-79
2023/06/22 07:25:08;;;;;;;19.75;16.67;;;;;;;;;;5035431;28;20153;-78
2023/06/22 07:27:37;;;;;;;23.15;16.67;;;;;;;;;;5035529;28;20053;-78
2023/06/22 07:30:03;;;;;;;19.85;15.77;;;;;;;;;;5035305;28;20050;-78
2023/06/22 07:32:29;;;;;;;18.15;13.65;;;;;;;;;;5035722;28;20119;-78
2023/06/22 07:34:55;;;;;;;18.60;15.40;;;;;;;;;;5033522;28;20068;-77
2023/06/22 07:37:21;;;;;;;22.25;18.27;;;;;;;;;;5034857;28;20072;-77
2023/06/22 07:39:50;;;;;;;19.75;16.30;;;;;;;;;;5036035;28;20398;-77
2023/06/22 07:42:18;;;;;;;22.73;16.23;;;;;;;;;;5035063;28;20049;-77
2023/06/22 07:44:44;;;;;;;21.20;16.17;;;;;;;;;;5036845;28;20083;-79
2023/06/22 07:47:11;;;;;;;19.48;15.73;;;;;;;;;;5038622;28;20076;-79
2023/06/22 07:49:37;;;;;;;24.17;15.23;;;;;;;;;;5038540;28;20041;-79
2023/06/22 07:52:03;;;;;;;19.23;15.25;;;;;;;;;;5032041;28;20050;-80
2023/06/22 07:54:29;;;;;;;18.98;15.90;;;;;;;;;;5037348;28;20125;-80
2023/06/22 07:56:55;;;;;;;22.67;18.67;;;;;;;;;;5035890;28;20041;-80
2023/06/22 07:59:21;;;;;;;20.75;16.35;;;;;;;;;;5037192;28;20049;-80
2023/06/22 08:01:48;;;;;;;18.80;15.65;;;;;;;;;;5035675;28;20203;-79
2023/06/22 08:04:15;;;;;;;19.42;16.20;;;;;;;;;;5026646;28;20056;-79
2023/06/22 08:06:41;;;;;;;18.63;15.75;;;;;;;;;;5040381;28;20120;-80
2023/06/22 08:09:07;;;;;;;20.00;17.75;;;;;;;;;;5040583;28;20083;-79
2023/06/22 08:11:33;;;;;;;21.52;17.30;;;;;;;;;;5045293;28;20499;-79
2023/06/22 08:13:59;;;;;;;20.83;16.70;;;;;;;;;;5046686;28;20095;-79
2023/06/22 08:16:26;;;;;;;19.67;16.05;;;;;;;;;;5045943;28;20049;-82
2023/06/22 08:18:52;;;;;;;14.75;13.07;;;;;;;;;;5042208;28;20045;-82
2023/06/22 08:21:18;;;;;;;15.45;13.32;;;;;;;;;;5036780;28;20049;-81
2023/06/22 08:23:44;;;;;;;17.25;12.25;;;;;;;;;;5031990;28;20046;-80
2023/06/22 08:26:10;;;;;;;12.02;10.68;;;;;;;;;;5039559;28;20115;-80
2023/06/22 08:28:36;;;;;;;14.48;11.52;;;;;;;;;;5040203;28;20049;-81
2023/06/22 08:31:03;;;;;;;15.52;12.63;;;;;;;;;;5039167;28;20049;-81
2023/06/22 08:33:30;;;;;;;15.23;12.48;;;;;;;;;;5043114;28;20053;-81
2023/06/22 08:35:56;;;;;;;16.55;11.77;;;;;;;;;;5033076;28;20069;-79
2023/06/22 08:38:22;;;;;;;17.25;12.63;;;;;;;;;;5029084;28;20042;-79
2023/06/22 08:40:49;;;;;;;14.48;11.63;;;;;;;;;;5027716;28;20128;-79
2023/06/22 08:43:15;;;;;;;14.27;12.77;;;;;;;;;;5036903;28;20041;-80
2023/06/22 08:45:41;;;;;;;12.15;10.50;;;;;;;;;;5038734;28;20064;-81
2023/06/22 08:48:07;;;;;;;15.02;12.05;;;;;;;;;;5034309;28;20042;-79
2023/06/22 08:50:33;;;;;;;13.13;10.30;;;;;;;;;;5033678;28;20156;-81
2023/06/22 08:52:59;;;;;;;12.88;11.32;;;;;;;;;;5039990;28;20050;-82
2023/06/22 08:55:25;;;;;;;16.23;12.10;;;;;;;;;;5039233;28;20101;-82
2023/06/22 08:57:51;;;;;;;17.42;13.13;;;;;;;;;;5038641;28;20048;-80
2023/06/22 09:00:19;;;;;;;12.82;11.30;;;;;;;;;;5037208;28;20053;-80
2023/06/22 09:02:46;;;;;;;13.55;9.70;;;;;;;;;;5039087;28;20446;-80
2023/06/22 09:05:12;;;;;;;10.05;7.50;;;;;;;;;;5034841;28;20048;-81
2023/06/22 09:07:38;;;;;;;10.02;8.32;;;;;;;;;;5039120;28;20041;-80
2023/06/22 09:10:05;;;;;;;9.98;8.48;;;;;;;;;;5038053;28;20427;-80
2023/06/22 09:12:32;;;;;;;13.10;10.40;;;;;;;;;;5037802;28;20132;-80
2023/06/22 09:15:00;;;;;;;12.98;10.40;;;;;;;;;;5038850;28;20084;-80
2023/06/22 09:17:26;;;;;;;10.82;7.85;;;;;;;;;;5021115;28;20056;-79
2023/06/22 09:19:52;;;;;;;9.95;7.50;;;;;;;;;;5016041;28;20129;-79
2023/06/22 09:22:18;;;;;;;10.82;8.77;;;;;;;;;;5034625;28;20385;-81
2023/06/22 09:24:44;;;;;;;8.43;7.13;;;;;;;;;;5036649;28;20076;-80
2023/06/22 09:27:10;;;;;;;9.48;7.20;;;;;;;;;;5036708;28;20045;-78
2023/06/22 09:29:36;;;;;;;6.40;5.53;;;;;;;;;;5033478;28;20099;-78
2023/06/22 09:32:02;;;;;;;7.40;5.93;;;;;;;;;;5031964;28;20107;-77
2023/06/22 09:34:31;;;;;;;7.43;6.50;;;;;;;;;;5032912;28;20049;-77
2023/06/22 09:36:57;;;;;;;7.72;6.82;;;;;;;;;;5033179;28;20124;-77
2023/06/22 09:39:23;;;;;;;8.75;5.22;;;;;;;;;;5032512;28;20057;-77
2023/06/22 09:41:49;;;;;;;7.82;5.93;;;;;;;;;;5029610;28;20041;-78
2023/06/22 09:44:15;;;;;;;5.90;4.55;;;;;;;;;;5024087;28;20065;-80
2023/06/22 09:46:41;;;;;;;5.63;4.00;;;;;;;;;;5025005;28;20459;-83
2023/06/22 09:49:07;;;;;;;5.00;4.18;;;;;;;;;;5031139;28;20050;-81
2023/06/22 09:51:33;;;;;;;7.63;5.43;;;;;;;;;;5015954;28;20506;-78
2023/06/22 09:53:59;;;;;;;7.50;6.13;;;;;;;;;;5028880;28;20060;-77
2023/06/22 09:56:28;;;;;;;8.10;6.05;;;;;;;;;;5033210;28;20053;-77
2023/06/22 09:58:54;;;;;;;8.18;5.47;;;;;;;;;;5037236;28;20056;-77
2023/06/22 10:01:21;;;;;;;7.93;6.20;;;;;;;;;;5037396;28;20042;-78
2023/06/22 10:03:47;;;;;;;7.05;6.30;;;;;;;;;;5037012;28;20045;-78
2023/06/22 10:06:13;;;;;;;8.80;5.80;;;;;;;;;;5036989;28;20511;-78
2023/06/22 10:08:40;;;;;;;7.20;5.43;;;;;;;;;;5036945;28;20507;-78
2023/06/22 10:11:06;;;;;;;9.20;6.82;;;;;;;;;;5036645;28;20475;-78
2023/06/22 10:13:32;;;;;;;9.02;6.88;;;;;;;;;;5036336;28;20079;-78
2023/06/22 10:15:59;;;;;;;7.47;6.63;;;;;;;;;;5036453;28;20585;-78
2023/06/22 10:18:25;;;;;;;7.57;6.68;;;;;;;;;;5036633;28;20041;-78
2023/06/22 10:20:51;;;;;;;8.65;6.40;;;;;;;;;;5036654;28;20050;-78
2023/06/22 10:23:18;;;;;;;6.25;5.40;;;;;;;;;;5036211;28;20083;-78
2023/06/22 10:25:44;;;;;;;8.02;4.97;;;;;;;;;;5036176;28;20552;-78
2023/06/22 10:28:10;;;;;;;9.98;5.68;;;;;;;;;;5036396;28;20077;-77
2023/06/22 10:30:36;;;;;;;7.75;6.05;;;;;;;;;;5035801;28;20395;-77
2023/06/22 10:33:02;;;;;;;10.75;6.80;;;;;;;;;;5036327;28;20077;-77
2023/06/22 10:35:28;;;;;;;7.30;6.45;;;;;;;;;;5035953;28;20041;-77
2023/06/22 10:37:56;;;;;;;7.20;5.57;;;;;;;;;;5036178;28;20518;-77
2023/06/22 10:40:22;;;;;;;6.47;5.75;;;;;;;;;;5034542;28;20050;-77
2023/06/22 10:42:50;;;;;;;5.57;5.07;;;;;;;;;;5035979;28;20441;-77
2023/06/22 10:45:16;;;;;;;6.97;5.68;;;;;;;;;;5036313;28;20498;-77
2023/06/22 10:47:42;;;;;;;7.32;4.97;;;;;;;;;;5036119;28;20068;-77
2023/06/22 10:50:08;;;;;;;8.98;6.20;;;;;;;;;;5036343;28;20045;-77
2023/06/22 10:52:34;;;;;;;7.28;5.60;;;;;;;;;;5035968;28;20415;-77
2023/06/22 10:55:00;;;;;;;7.55;4.80;;;;;;;;;;5032667;28;20100;-77
2023/06/22 10:57:26;;;;;;;7.65;5.20;;;;;;;;;;5016329;28;20053;-78
2023/06/22 10:59:52;;;;;;;6.78;4.20;;;;;;;;;;5016416;28;20049;-78
2023/06/22 11:02:28;;;;;;;6.70;5.13;;;;;;;;;;5015900;28;20045;-78
2023/06/22 11:04:54;;;;;;;7.35;4.50;;;;;;;;;;5014699;28;20050;-78
2023/06/22 11:07:20;;;;;;;3.83;3.42;;;;;;;;;;5015776;28;20042;-77
2023/06/22 11:09:46;;;;;;;5.90;4.20;;;;;;;;;;5014352;28;20049;-78
2023/06/22 11:12:12;;;;;;;6.13;4.10;;;;;;;;;;5016304;28;20045;-78
2023/06/22 11:14:39;;;;;;;7.97;4.95;;;;;;;;;;5015803;28;20046;-79
2023/06/22 11:17:05;;;;;;;8.27;6.47;;;;;;;;;;5016111;28;20125;-78
2023/06/22 11:19:31;;;;;;;5.57;4.82;;;;;;;;;;5016199;28;20049;-78
2023/06/22 11:21:57;;;;;;;6.38;4.13;;;;;;;;;;5015696;28;20408;-78
2023/06/22 11:24:23;;;;;;;6.13;4.75;;;;;;;;;;5015499;28;20531;-78
2023/06/22 11:26:50;;;;;;;7.00;5.10;;;;;;;;;;5015945;28;20046;-78
2023/06/22 11:29:16;;;;;;;7.43;5.78;;;;;;;;;;5015892;28;20038;-78
2023/06/22 11:31:43;;;;;;;7.13;5.13;;;;;;;;;;5016581;28;20060;-78
2023/06/22 11:34:09;;;;;;;6.30;4.22;;;;;;;;;;5016111;28;20427;-78
2023/06/22 11:36:35;;;;;;;6.10;4.55;;;;;;;;;;5015458;28;20049;-78
2023/06/22 11:39:01;;;;;;;4.63;3.83;;;;;;;;;;5015676;28;20049;-78
2023/06/22 11:41:27;;;;;;;4.95;3.65;;;;;;;;;;5015538;28;20042;-78
2023/06/22 11:43:54;;;;;;;4.15;3.55;;;;;;;;;;5014578;28;20068;-78
2023/06/22 11:46:20;;;;;;;4.32;3.17;;;;;;;;;;5015437;28;20049;-78
2023/06/22 11:48:46;;;;;;;4.15;2.97;;;;;;;;;;5015783;28;20038;-78
2023/06/22 11:51:12;;;;;;;4.32;3.45;;;;;;;;;;5017057;28;20045;-78
2023/06/22 11:53:38;;;;;;;4.25;2.90;;;;;;;;;;5015823;28;20057;-78
2023/06/22 11:56:04;;;;;;;4.13;3.05;;;;;;;;;;5014273;28;20108;-78
2023/06/22 11:58:30;;;;;;;3.80;2.70;;;;;;;;;;5015906;28;20125;-78
2023/06/22 12:00:56;;;;;;;3.67;2.95;;;;;;;;;;5015929;28;20073;-78
2023/06/22 12:03:22;;;;;;;4.35;3.00;;;;;;;;;;5016031;28;20038;-78
2023/06/22 12:05:49;;;;;;;5.18;2.75;;;;;;;;;;5016551;28;20034;-78
2023/06/22 12:08:15;;;;;;;5.78;3.45;;;;;;;;;;5019033;28;20053;-78
2023/06/22 12:10:41;;;;;;;3.78;2.55;;;;;;;;;;5020428;28;20065;-78
2023/06/22 12:13:07;;;;;;;7.00;2.60;;;;;;;;;;5020256;28;20065;-78
2023/06/22 12:15:33;;;;;;;5.13;2.90;;;;;;;;;;5015624;28;20108;-78
2023/06/22 12:18:01;;;;;;;3.55;2.60;;;;;;;;;;5015467;28;20069;-78
2023/06/22 12:20:27;;;;;;;3.28;2.50;;;;;;;;;;5014764;28;20056;-78
2023/06/22 12:22:55;;;;;;;2.65;2.42;;;;;;;;;;5012900;28;20058;-78
2023/06/22 12:25:21;;;;;;;2.90;2.40;;;;;;;;;;5014960;28;20038;-78
2023/06/22 12:27:47;;;;;;;3.65;2.20;;;;;;;;;;5014124;28;20100;-78
2023/06/22 12:30:13;;;;;;;3.40;2.25;;;;;;;;;;5014113;28;20077;-78
2023/06/22 12:32:39;;;;;;;3.22;2.05;;;;;;;;;;5014665;28;20046;-78
2023/06/22 12:35:07;;;;;;;3.42;2.30;;;;;;;;;;5014165;28;20451;-78
2023/06/22 12:37:36;;;;;;;2.58;2.20;;;;;;;;;;5014588;28;20096;-78
2023/06/22 12:40:03;;;;;;;3.90;2.20;;;;;;;;;;5014392;28;20042;-78
2023/06/22 12:42:29;;;;;;;3.17;2.10;;;;;;;;;;5014154;28;20058;-78
2023/06/22 12:44:55;;;;;;;5.13;2.40;;;;;;;;;;5013893;28;20053;-78
2023/06/22 12:47:21;;;;;;;2.67;2.10;;;;;;;;;;5013832;28;20042;-78
2023/06/22 12:49:47;;;;;;;5.40;2.13;;;;;;;;;;5013814;28;20050;-78
2023/06/22 12:52:13;;;;;;;3.45;2.20;;;;;;;;;;5014322;28;20117;-78
2023/06/22 12:54:40;;;;;;;2.90;2.20;;;;;;;;;;5013948;28;20046;-77
2023/06/22 12:57:06;;;;;;;2.80;2.00;;;;;;;;;;4996446;28;20050;-77
2023/06/22 12:59:32;;;;;;;2.78;2.00;;;;;;;;;;5014017;28;20046;-77
2023/06/22 13:01:58;;;;;;;3.53;2.20;;;;;;;;;;5013844;28;20473;-78
2023/06/22 13:04:24;;;;;;;3.08;2.22;;;;;;;;;;5013634;28;20041;-78
2023/06/22 13:06:50;;;;;;;2.50;1.90;;;;;;;;;;5025483;28;20093;-78
2023/06/22 13:09:16;;;;;;;2.80;2.35;;;;;;;;;;5033782;28;20115;-78
2023/06/22 13:11:43;;;;;;;4.25;2.10;;;;;;;;;;5033131;28;20045;-78
2023/06/22 13:14:09;;;;;;;2.95;2.10;;;;;;;;;;5033277;28;20045;-78
2023/06/22 13:16:35;;;;;;;2.60;2.00;;;;;;;;;;5033213;28;20045;-77
2023/06/22 13:19:01;;;;;;;4.15;2.40;;;;;;;;;;5033211;28;20388;-77
2023/06/22 13:21:27;;;;;;;4.65;2.42;;;;;;;;;;5031732;28;20046;-78
2023/06/22 13:23:53;;;;;;;3.13;2.20;;;;;;;;;;5032701;28;20049;-77
2023/06/22 13:26:19;;;;;;;3.13;2.38;;;;;;;;;;5032640;28;20064;-77
2023/06/22 13:28:45;;;;;;;2.58;2.00;;;;;;;;;;5033366;28;20041;-77
2023/06/22 13:31:11;;;;;;;3.58;2.20;;;;;;;;;;5032844;28;20057;-77
2023/06/22 13:33:40;;;;;;;3.45;2.20;;;;;;;;;;5033516;28;20047;-77
2023/06/22 13:36:07;;;;;;;2.63;2.28;;;;;;;;;;5032813;28;20077;-78
2023/06/22 13:38:33;;;;;;;2.83;2.03;;;;;;;;;;5032974;28;20056;-78
2023/06/22 13:40:59;;;;;;;3.83;2.60;;;;;;;;;;5033012;28;20056;-78
2023/06/22 13:43:27;;;;;;;3.10;2.17;;;;;;;;;;5033632;28;20117;-77
2023/06/22 13:45:53;;;;;;;3.70;2.28;;;;;;;;;;5032908;28;20084;-77
2023/06/22 13:48:19;;;;;;;3.05;2.10;;;;;;;;;;5032976;28;20045;-77
2023/06/22 13:50:45;;;;;;;4.50;2.40;;;;;;;;;;5032768;28;20137;-77
2023/06/22 13:53:11;;;;;;;3.95;2.38;;;;;;;;;;5033140;28;20486;-77
2023/06/22 13:55:37;;;;;;;4.82;2.45;;;;;;;;;;5032743;28;20046;-77
2023/06/22 13:58:03;;;;;;;5.13;2.35;;;;;;;;;;5032873;28;20075;-77
2023/06/22 14:00:29;;;;;;;3.17;2.40;;;;;;;;;;5032962;28;20041;-77
2023/06/22 14:02:55;;;;;;;4.05;2.40;;;;;;;;;;5033079;28;20121;-77
2023/06/22 14:05:22;;;;;;;3.38;2.13;;;;;;;;;;5032492;28;20077;-77
2023/06/22 14:07:48;;;;;;;3.05;2.38;;;;;;;;;;5032799;28;20124;-77
2023/06/22 14:10:14;;;;;;;3.60;2.45;;;;;;;;;;5033059;28;20046;-77
2023/06/22 14:12:40;;;;;;;4.50;2.25;;;;;;;;;;5032702;28;20125;-77
2023/06/22 14:15:06;;;;;;;3.00;2.40;;;;;;;;;;5032940;28;20046;-77
2023/06/22 14:17:32;;;;;;;4.05;2.40;;;;;;;;;;5033010;28;20050;-77
2023/06/22 14:19:58;;;;;;;2.72;2.30;;;;;;;;;;5032546;28;20050;-77
2023/06/22 14:22:25;;;;;;;3.28;2.20;;;;;;;;;;5033102;28;20060;-77